createdAt,value
2018-08-25T00:00:19.072Z,0.60
2018-08-25T00:02:47.265Z,0.63
2018-08-25T00:05:15.554Z,0.70
2018-08-25T00:07:43.785Z,0.70
2018-08-25T00:10:11.965Z,0.50
2018-08-25T00:12:40.145Z,0.67
2018-08-25T00:15:08.348Z,0.60
2018-08-25T00:17:36.682Z,0.87
2018-08-25T00:20:05.632Z,0.67
2018-08-25T00:22:33.830Z,0.70
2018-08-25T00:25:02.132Z,0.80
2018-08-25T00:27:30.464Z,0.83
2018-08-25T00:29:58.635Z,0.80
2018-08-25T00:32:26.808Z,0.80
2018-08-25T00:34:54.995Z,0.80
2018-08-25T00:37:23.205Z,0.80
2018-08-25T00:39:51.375Z,0.80
2018-08-25T00:42:19.556Z,0.70
2018-08-25T00:44:47.748Z,0.60
2018-08-25T00:47:15.957Z,0.60
2018-08-25T00:49:44.221Z,0.77
2018-08-25T00:52:12.400Z,0.80
2018-08-25T00:54:40.588Z,0.60
2018-08-25T00:57:08.872Z,0.67
2018-08-25T00:59:37.500Z,0.60
2018-08-25T01:02:05.740Z,0.80
2018-08-25T01:04:33.974Z,0.73
2018-08-25T01:07:02.846Z,0.67
2018-08-25T01:09:31.090Z,0.90
2018-08-25T01:11:59.341Z,0.90
2018-08-25T01:14:27.546Z,0.93
2018-08-25T01:16:55.724Z,0.90
2018-08-25T01:19:23.919Z,1.00
2018-08-25T01:21:52.108Z,0.90
2018-08-25T01:24:20.278Z,0.87
2018-08-25T01:26:48.491Z,0.93
2018-08-25T01:29:16.677Z,0.87
2018-08-25T01:31:44.850Z,1.00
2018-08-25T01:34:13.096Z,0.90
2018-08-25T01:36:41.346Z,1.00
2018-08-25T01:39:09.972Z,1.17
2018-08-25T01:41:38.412Z,0.93
2018-08-25T01:44:06.622Z,1.00
2018-08-25T01:46:34.871Z,0.93
2018-08-25T01:49:03.227Z,1.10
2018-08-25T01:51:31.449Z,1.20
2018-08-25T01:53:59.720Z,0.80
2018-08-25T01:56:27.913Z,1.00
2018-08-25T01:58:56.092Z,1.10
2018-08-25T02:01:24.341Z,1.10
2018-08-25T02:03:52.566Z,1.27
2018-08-25T02:06:20.754Z,1.30
2018-08-25T02:08:49.067Z,1.07
2018-08-25T02:11:17.396Z,1.00
2018-08-25T02:13:45.569Z,1.00
2018-08-25T02:16:13.755Z,1.33
2018-08-25T02:18:41.932Z,1.20
2018-08-25T02:21:10.125Z,1.27
2018-08-25T02:23:38.313Z,1.10
2018-08-25T02:26:06.499Z,1.23
2018-08-25T02:28:34.794Z,1.40
2018-08-25T02:31:02.989Z,1.03
2018-08-25T02:33:31.172Z,1.17
2018-08-25T02:35:59.412Z,1.17
2018-08-25T02:38:27.625Z,1.27
2018-08-25T02:40:55.834Z,1.23
2018-08-25T02:43:24.046Z,1.20
2018-08-25T02:45:52.311Z,1.50
2018-08-25T02:48:20.589Z,1.40
2018-08-25T02:50:48.852Z,1.40
2018-08-25T02:53:17.029Z,1.30
2018-08-25T02:55:45.391Z,1.13
2018-08-25T02:58:13.571Z,1.30
2018-08-25T03:00:41.751Z,1.37
2018-08-25T03:03:09.954Z,1.20
2018-08-25T03:05:38.234Z,1.17
2018-08-25T03:08:06.453Z,1.30
2018-08-25T03:10:35.348Z,1.37
2018-08-25T03:13:03.524Z,1.30
2018-08-25T03:15:31.814Z,1.27
2018-08-25T03:18:00.117Z,1.10
2018-08-25T03:20:28.365Z,1.60
2018-08-25T03:22:56.724Z,1.33
2018-08-25T03:25:25.107Z,1.50
2018-08-25T03:27:53.377Z,1.73
2018-08-25T03:30:21.780Z,1.40
2018-08-25T03:32:50.281Z,1.53
2018-08-25T03:35:18.574Z,1.70
2018-08-25T03:37:46.796Z,1.30
2018-08-25T03:45:02.202Z,1.60
2018-08-25T03:47:31.642Z,1.27
2018-08-25T03:49:59.861Z,1.37
2018-08-25T03:52:28.204Z,1.43
2018-08-25T03:54:56.498Z,1.30
2018-08-25T03:57:24.789Z,1.40
2018-08-25T03:59:53.309Z,1.30
2018-08-25T04:02:21.648Z,1.13
2018-08-25T04:04:49.918Z,1.53
2018-08-25T04:07:18.209Z,1.40
2018-08-25T04:09:46.626Z,1.13
2018-08-25T04:12:14.876Z,0.90
2018-08-25T04:14:43.140Z,1.30
2018-08-25T04:17:11.284Z,1.20
2018-08-25T04:19:39.491Z,1.50
2018-08-25T04:22:07.817Z,1.40
2018-08-25T04:24:36.132Z,1.63
2018-08-25T04:27:04.437Z,1.37
2018-08-25T04:29:32.756Z,1.43
2018-08-25T04:32:00.958Z,1.53
2018-08-25T04:34:29.241Z,1.30
2018-08-25T04:36:57.494Z,1.30
2018-08-25T04:39:25.770Z,1.60
2018-08-25T04:41:54.060Z,1.90
2018-08-25T04:44:22.303Z,1.50
2018-08-25T04:46:51.521Z,2.10
2018-08-25T04:49:19.801Z,1.90
2018-08-25T04:51:49.185Z,1.83
2018-08-25T04:54:17.498Z,1.83
2018-08-25T04:56:45.763Z,1.90
2018-08-25T04:59:14.021Z,1.90
2018-08-25T05:01:42.358Z,1.73
2018-08-25T05:04:11.505Z,1.90
2018-08-25T05:06:39.888Z,1.73
2018-08-25T05:09:10.257Z,1.80
2018-08-25T05:11:38.652Z,2.00
2018-08-25T05:14:06.845Z,2.00
2018-08-25T05:16:35.116Z,2.40
2018-08-25T05:19:03.289Z,2.50
2018-08-25T05:21:31.608Z,2.50
2018-08-25T05:24:00.418Z,2.40
2018-08-25T05:26:28.795Z,2.23
2018-08-25T05:28:57.120Z,2.77
2018-08-25T05:31:25.564Z,2.40
2018-08-25T05:33:53.844Z,3.73
2018-08-25T05:36:22.041Z,2.90
2018-08-25T05:38:50.260Z,2.80
2018-08-25T05:41:18.605Z,2.87
2018-08-25T05:43:47.032Z,3.10
2018-08-25T05:46:15.237Z,3.70
2018-08-25T05:48:44.616Z,3.90
2018-08-25T05:51:13.128Z,3.83
2018-08-25T05:53:41.486Z,3.80
2018-08-25T05:56:09.669Z,3.80
2018-08-25T05:58:37.844Z,4.50
2018-08-25T06:01:06.124Z,4.23
2018-08-25T06:03:34.425Z,3.83
2018-08-25T06:06:03.140Z,4.67
2018-08-25T06:08:31.685Z,4.60
2018-08-25T06:11:00.325Z,4.70
2018-08-25T06:13:28.566Z,4.23
2018-08-25T06:15:56.835Z,4.40
2018-08-25T06:18:25.069Z,5.20
2018-08-25T06:20:53.368Z,4.10
2018-08-25T06:23:21.997Z,4.57
2018-08-25T06:25:50.226Z,4.70
2018-08-25T06:28:18.470Z,4.30
2018-08-25T06:30:46.676Z,4.33
2018-08-25T06:33:17.108Z,5.00
2018-08-25T06:35:45.354Z,4.20
2018-08-25T06:38:13.525Z,4.00
2018-08-25T06:40:41.792Z,4.50
2018-08-25T06:43:09.979Z,4.20
2018-08-25T06:45:38.474Z,4.27
2018-08-25T06:48:07.487Z,4.03
2018-08-25T06:50:35.786Z,4.40
2018-08-25T06:53:04.146Z,4.73
2018-08-25T06:55:32.666Z,3.93
2018-08-25T06:58:00.966Z,4.23
2018-08-25T07:00:29.561Z,3.93
2018-08-25T07:02:58.047Z,4.07
2018-08-25T07:05:26.304Z,4.20
2018-08-25T07:07:54.840Z,3.57
2018-08-25T07:10:23.281Z,4.13
2018-08-25T07:12:51.530Z,3.73
2018-08-25T07:15:19.961Z,3.50
2018-08-25T07:17:48.150Z,3.90
2018-08-25T07:20:16.335Z,3.37
2018-08-25T07:22:44.506Z,4.10
2018-08-25T07:25:12.748Z,4.23
2018-08-25T07:27:40.914Z,3.87
2018-08-25T07:30:09.109Z,3.60
2018-08-25T07:32:37.283Z,3.87
2018-08-25T07:35:05.533Z,3.47
2018-08-25T07:37:33.690Z,3.00
2018-08-25T07:40:01.886Z,3.70
2018-08-25T07:42:30.408Z,3.30
2018-08-25T07:44:58.584Z,3.73
2018-08-25T07:47:26.757Z,3.47
2018-08-25T07:49:54.969Z,3.30
2018-08-25T07:52:23.144Z,2.70
2018-08-25T07:54:51.429Z,3.30
2018-08-25T07:57:19.605Z,3.03
2018-08-25T07:59:47.802Z,3.07
2018-08-25T08:02:16.394Z,3.07
2018-08-25T08:04:44.638Z,2.70
2018-08-25T08:07:12.803Z,2.70
2018-08-25T08:09:40.977Z,2.73
2018-08-25T08:12:09.184Z,2.70
2018-08-25T08:14:37.465Z,2.67
2018-08-25T08:17:05.693Z,2.40
2018-08-25T08:19:33.858Z,2.30
2018-08-25T08:22:02.017Z,2.40
2018-08-25T08:24:30.184Z,2.20
2018-08-25T08:26:58.582Z,2.10
2018-08-25T08:29:26.769Z,2.40
2018-08-25T08:31:54.932Z,1.97
2018-08-25T08:34:23.107Z,1.80
2018-08-25T08:36:51.481Z,2.10
2018-08-25T08:39:19.842Z,2.10
2018-08-25T08:41:48.041Z,1.70
2018-08-25T08:44:17.394Z,2.00
2018-08-25T08:46:45.613Z,2.10
2018-08-25T08:49:13.814Z,2.00
2018-08-25T08:51:41.955Z,1.90
2018-08-25T08:54:10.129Z,1.60
2018-08-25T08:56:38.425Z,1.90
2018-08-25T08:59:06.427Z,2.00
2018-08-25T09:01:34.708Z,1.83
2018-08-25T09:04:03.064Z,1.83
2018-08-25T09:06:31.254Z,1.80
2018-08-25T09:08:59.681Z,1.50
2018-08-25T09:11:28.159Z,1.60
2018-08-25T09:13:57.132Z,1.90
2018-08-25T09:16:25.321Z,2.20
2018-08-25T09:18:53.565Z,1.80
2018-08-25T09:21:21.776Z,1.93
2018-08-25T09:23:50.129Z,1.60
2018-08-25T09:26:18.303Z,1.70
2018-08-25T09:28:46.646Z,1.80
2018-08-25T09:31:14.824Z,1.80
2018-08-25T09:33:43.015Z,2.10
2018-08-25T09:36:11.334Z,2.17
2018-08-25T09:38:39.420Z,2.17
2018-08-25T09:41:07.648Z,2.10
2018-08-25T09:43:35.959Z,2.10
2018-08-25T09:46:04.456Z,1.70
2018-08-25T09:48:32.923Z,1.70
2018-08-25T09:51:01.095Z,1.80
2018-08-25T09:53:29.292Z,2.10
2018-08-25T09:55:57.437Z,1.57
2018-08-25T09:58:25.864Z,1.93
2018-08-25T10:00:59.304Z,2.00
2018-08-25T10:03:27.481Z,1.67
2018-08-25T10:05:55.761Z,1.77
2018-08-25T10:08:24.281Z,2.20
2018-08-25T10:10:52.480Z,1.87
2018-08-25T10:13:21.119Z,1.60
2018-08-25T10:15:49.287Z,1.60
2018-08-25T10:18:17.480Z,1.87
2018-08-25T10:20:46.512Z,1.73
2018-08-25T10:23:14.708Z,1.80
2018-08-25T10:25:42.859Z,1.60
2018-08-25T10:28:11.069Z,1.57
2018-08-25T10:30:39.245Z,2.10
2018-08-25T10:33:07.444Z,1.60
2018-08-25T10:35:35.625Z,2.03
2018-08-25T10:38:03.763Z,2.20
2018-08-25T10:40:31.938Z,1.67
2018-08-25T10:43:00.109Z,1.83
2018-08-25T10:45:28.301Z,2.10
2018-08-25T10:47:56.530Z,1.70
2018-08-25T10:50:24.884Z,1.60
2018-08-25T10:52:53.049Z,1.43
2018-08-25T10:55:21.229Z,1.80
2018-08-25T10:57:49.436Z,1.23
2018-08-25T11:00:17.624Z,1.20
2018-08-25T11:02:45.759Z,1.27
2018-08-25T11:05:13.926Z,1.30
2018-08-25T11:07:42.108Z,1.50
2018-08-25T11:10:10.353Z,1.27
2018-08-25T11:12:38.530Z,1.20
2018-08-25T11:15:06.703Z,1.10
2018-08-25T11:17:34.914Z,1.20
2018-08-25T11:20:03.121Z,1.47
2018-08-25T11:22:31.316Z,1.20
2018-08-25T11:24:59.531Z,1.30
2018-08-25T11:27:27.693Z,1.20
2018-08-25T11:29:55.864Z,1.20
2018-08-25T11:32:24.064Z,1.50
2018-08-25T11:34:52.229Z,1.40
2018-08-25T11:37:20.713Z,1.40
2018-08-25T11:39:48.860Z,1.60
2018-08-25T11:42:17.028Z,1.40
2018-08-25T11:44:45.205Z,1.20
2018-08-25T11:47:15.629Z,1.20
2018-08-25T11:49:44.591Z,1.20
2018-08-25T11:52:12.834Z,1.20
2018-08-25T11:54:41.015Z,0.90
2018-08-25T11:57:09.580Z,0.90
2018-08-25T11:59:37.741Z,1.00
2018-08-25T12:02:06.036Z,1.23
2018-08-25T12:04:34.329Z,0.83
2018-08-25T12:07:02.508Z,1.13
2018-08-25T12:09:30.845Z,1.00
2018-08-25T12:11:59.033Z,1.13
2018-08-25T12:14:27.189Z,1.23
2018-08-25T12:16:55.380Z,1.10
2018-08-25T12:19:23.542Z,1.17
2018-08-25T12:21:52.601Z,1.30
2018-08-25T12:24:20.820Z,1.20
2018-08-25T12:26:49.992Z,1.50
2018-08-25T12:29:18.156Z,1.40
2018-08-25T12:31:46.322Z,1.50
2018-08-25T12:34:14.514Z,2.13
2018-08-25T12:36:42.803Z,1.97
2018-08-25T12:39:12.028Z,1.73
2018-08-25T12:41:41.825Z,1.57
2018-08-25T12:44:10.443Z,1.73
2018-08-25T12:46:38.603Z,1.77
2018-08-25T12:49:06.792Z,1.90
2018-08-25T12:51:35.006Z,1.80
2018-08-25T12:54:03.160Z,1.70
2018-08-25T12:56:31.320Z,1.80
2018-08-25T12:58:59.509Z,1.70
2018-08-25T13:01:27.656Z,1.60
2018-08-25T13:03:55.825Z,1.50
2018-08-25T13:06:24.093Z,1.50
2018-08-25T13:08:52.264Z,1.53
2018-08-25T13:11:20.438Z,1.57
2018-08-25T13:13:48.664Z,1.50
2018-08-25T13:16:16.860Z,1.97
2018-08-25T13:18:45.095Z,1.80
2018-08-25T13:21:13.209Z,1.37
2018-08-25T13:23:41.520Z,1.40
2018-08-25T13:26:09.691Z,1.13
2018-08-25T13:28:37.864Z,1.00
2018-08-25T13:31:06.337Z,1.03
2018-08-25T13:33:35.661Z,1.10
2018-08-25T13:36:03.823Z,1.20
2018-08-25T13:38:31.996Z,1.47
2018-08-25T13:41:01.433Z,1.50
2018-08-25T13:43:29.588Z,1.13
2018-08-25T13:45:57.732Z,0.90
2018-08-25T13:48:25.899Z,0.97
2018-08-25T13:50:54.133Z,1.30
2018-08-25T13:53:22.273Z,0.90
2018-08-25T13:55:50.428Z,0.80
2018-08-25T13:58:18.736Z,0.90
2018-08-25T14:00:46.853Z,0.97
2018-08-25T14:03:15.017Z,0.87
2018-08-25T14:05:43.572Z,0.70
2018-08-25T14:08:11.929Z,0.90
2018-08-25T14:10:40.056Z,0.73
2018-08-25T14:13:08.247Z,0.90
2018-08-25T14:15:36.706Z,0.70
2018-08-25T14:18:05.064Z,0.90
2018-08-25T14:20:33.228Z,1.40
2018-08-25T14:23:01.461Z,1.60
2018-08-25T14:25:29.844Z,1.30
2018-08-25T14:27:58.040Z,1.10
2018-08-25T14:30:26.208Z,1.20
2018-08-25T14:32:54.382Z,1.00
2018-08-25T14:35:22.555Z,1.33
2018-08-25T14:37:50.730Z,0.90
2018-08-25T14:40:18.903Z,1.17
2018-08-25T14:42:47.075Z,1.00
2018-08-25T14:45:15.269Z,1.47
2018-08-25T14:47:43.450Z,1.33
2018-08-25T14:50:11.597Z,1.30
2018-08-25T14:52:39.858Z,1.33
2018-08-25T14:55:08.030Z,1.33
2018-08-25T14:57:36.217Z,1.07
2018-08-25T15:00:04.436Z,1.47
2018-08-25T15:02:32.620Z,2.00
2018-08-25T15:05:00.786Z,1.87
2018-08-25T15:07:28.969Z,1.60
2018-08-25T15:09:57.131Z,1.80
2018-08-25T15:12:25.321Z,1.73
2018-08-25T15:14:53.538Z,2.03
2018-08-25T15:17:23.735Z,1.93
2018-08-25T15:19:51.985Z,1.70
2018-08-25T15:22:20.152Z,2.00
2018-08-25T15:24:48.425Z,2.20
2018-08-25T15:27:16.616Z,1.90
2018-08-25T15:29:44.748Z,2.10
2018-08-25T15:32:12.936Z,1.70
2018-08-25T15:34:41.130Z,1.60
2018-08-25T15:37:09.375Z,1.30
2018-08-25T15:39:37.813Z,1.30
2018-08-25T15:42:06.116Z,0.97
2018-08-25T15:44:34.290Z,1.20
2018-08-25T15:47:02.570Z,1.00
2018-08-25T15:49:30.797Z,1.10
2018-08-25T15:51:59.045Z,1.00
2018-08-25T15:54:27.854Z,1.10
2018-08-25T15:56:56.253Z,0.90
2018-08-25T15:59:24.482Z,1.00
2018-08-25T16:01:52.653Z,1.10
2018-08-25T16:04:20.856Z,1.33
2018-08-25T16:06:49.014Z,1.20
2018-08-25T16:09:17.160Z,1.20
2018-08-25T16:11:45.938Z,1.30
2018-08-25T16:14:14.401Z,1.20
2018-08-25T16:16:42.800Z,1.20
2018-08-25T16:19:11.045Z,1.13
2018-08-25T16:21:39.630Z,1.10
2018-08-25T16:24:07.828Z,1.00
2018-08-25T16:26:35.989Z,1.20
2018-08-25T16:29:04.160Z,1.20
2018-08-25T16:31:32.312Z,1.07
2018-08-25T16:34:00.495Z,1.00
2018-08-25T16:36:28.652Z,0.90
2018-08-25T16:38:57.119Z,1.27
2018-08-25T16:41:25.364Z,1.10
2018-08-25T16:43:53.541Z,1.00
2018-08-25T16:46:21.822Z,0.97
2018-08-25T16:48:50.369Z,1.03
2018-08-25T16:51:18.925Z,1.10
2018-08-25T16:53:47.375Z,0.90
2018-08-25T16:56:15.729Z,1.00
2018-08-25T16:58:44.389Z,1.00
2018-08-25T17:01:12.716Z,0.80
2018-08-25T17:03:41.227Z,1.00
2018-08-25T17:06:09.453Z,1.10
2018-08-25T17:08:38.451Z,1.00
2018-08-25T17:11:06.734Z,1.10
2018-08-25T17:13:35.009Z,0.70
2018-08-25T17:16:03.891Z,0.80
2018-08-25T17:18:32.179Z,1.00
2018-08-25T17:21:00.494Z,1.07
2018-08-25T17:23:28.770Z,0.80
2018-08-25T17:25:57.299Z,1.00
2018-08-25T17:28:25.666Z,1.07
2018-08-25T17:30:54.165Z,1.13
2018-08-25T17:33:23.013Z,1.00
2018-08-25T17:35:52.145Z,0.83
2018-08-25T17:38:20.369Z,1.00
2018-08-25T17:40:48.708Z,0.87
2018-08-25T17:43:17.976Z,0.90
2018-08-25T17:45:46.180Z,0.83
2018-08-25T17:48:14.333Z,0.90
2018-08-25T17:50:42.485Z,0.90
2018-08-25T17:53:10.637Z,1.00
2018-08-25T17:55:38.940Z,1.07
2018-08-25T17:58:07.339Z,0.70
2018-08-25T18:00:35.614Z,0.97
2018-08-25T18:03:03.775Z,0.90
2018-08-25T18:05:31.927Z,0.90
2018-08-25T18:08:00.287Z,0.90
2018-08-25T18:10:28.446Z,1.10
2018-08-25T18:12:56.619Z,1.10
2018-08-25T18:15:24.941Z,0.97
2018-08-25T18:17:53.276Z,0.87
2018-08-25T18:20:21.459Z,0.80
2018-08-25T18:22:49.666Z,1.00
2018-08-25T18:25:18.053Z,0.83
2018-08-25T18:27:46.200Z,0.80
2018-08-25T18:30:14.520Z,0.87
2018-08-25T18:32:43.584Z,0.90
2018-08-25T18:35:11.758Z,1.07
2018-08-25T18:37:39.913Z,0.80
2018-08-25T18:40:08.086Z,0.90
2018-08-25T18:42:36.247Z,1.00
2018-08-25T18:45:04.456Z,0.77
2018-08-25T18:47:32.632Z,0.90
2018-08-25T18:50:01.400Z,1.20
2018-08-25T18:52:29.659Z,1.20
2018-08-25T18:54:57.994Z,1.30
2018-08-25T18:57:26.081Z,1.30
2018-08-25T18:59:55.368Z,1.17
2018-08-25T19:02:23.948Z,1.20
2018-08-25T19:04:52.074Z,0.83
2018-08-25T19:07:20.449Z,0.70
2018-08-25T19:09:48.622Z,0.90
2018-08-25T19:12:16.798Z,0.60
2018-08-25T19:14:44.957Z,0.70
2018-08-25T19:17:13.157Z,0.60
2018-08-25T19:19:41.363Z,0.70
2018-08-25T19:22:09.555Z,0.70
2018-08-25T19:24:37.744Z,0.70
2018-08-25T19:27:05.961Z,1.07
2018-08-25T19:29:34.137Z,0.73
2018-08-25T19:32:02.314Z,0.80
2018-08-25T19:34:30.594Z,0.63
2018-08-25T19:36:59.954Z,0.80
2018-08-25T19:39:28.321Z,0.80
2018-08-25T19:41:56.554Z,0.60
2018-08-25T19:44:24.744Z,0.70
2018-08-25T19:46:53.095Z,0.80
2018-08-25T19:49:21.220Z,0.63
2018-08-25T19:51:49.566Z,0.60
2018-08-25T19:54:17.735Z,0.70
2018-08-25T19:56:46.026Z,0.50
2018-08-25T19:59:14.349Z,0.60
2018-08-25T20:01:42.519Z,0.90
2018-08-25T20:04:11.108Z,1.03
2018-08-25T20:06:39.306Z,1.07
2018-08-25T20:09:07.852Z,0.90
2018-08-25T20:11:36.412Z,1.40
2018-08-25T20:14:04.856Z,1.43
2018-08-25T20:16:33.083Z,1.20
2018-08-25T20:19:01.483Z,1.00
2018-08-25T20:21:29.738Z,1.10
2018-08-25T20:23:58.126Z,1.07
2018-08-25T20:26:26.564Z,0.93
2018-08-25T20:28:54.844Z,0.90
2018-08-25T20:31:23.165Z,0.90
2018-08-25T20:33:51.413Z,1.00
2018-08-25T20:36:19.580Z,0.90
2018-08-25T20:38:47.778Z,0.80
2018-08-25T20:41:16.250Z,0.90
2018-08-25T20:43:44.426Z,0.90
2018-08-25T20:46:12.628Z,0.80
2018-08-25T20:48:40.785Z,0.70
2018-08-25T20:51:08.953Z,0.68
2018-08-25T20:53:37.261Z,0.80
2018-08-25T20:56:05.792Z,0.70
2018-08-25T20:58:39.528Z,0.80
2018-08-25T21:01:07.865Z,0.73
2018-08-25T21:03:36.049Z,0.70
2018-08-25T21:06:04.518Z,0.80
2018-08-25T21:08:32.717Z,0.67
2018-08-25T21:11:00.935Z,0.87
2018-08-25T21:13:29.116Z,0.80
2018-08-25T21:15:57.352Z,0.90
2018-08-25T21:18:25.654Z,0.70
2018-08-25T21:20:54.002Z,0.60
2018-08-25T21:23:22.196Z,0.60
2018-08-25T21:25:50.424Z,0.60
2018-08-25T21:28:18.828Z,0.60
2018-08-25T21:30:47.068Z,0.80
2018-08-25T21:33:16.862Z,0.70
2018-08-25T21:35:45.145Z,0.60
2018-08-25T21:38:13.357Z,0.50
2018-08-25T21:40:41.556Z,0.80
2018-08-25T21:43:09.716Z,0.70
2018-08-25T21:45:37.885Z,0.90
2018-08-25T21:48:05.789Z,0.90
2018-08-25T21:50:33.976Z,0.73
2018-08-25T21:53:02.346Z,0.53
2018-08-25T21:55:30.769Z,0.80
2018-08-25T21:57:59.098Z,0.70
2018-08-25T22:00:27.460Z,0.90
2018-08-25T22:02:55.753Z,0.80
2018-08-25T22:05:24.100Z,0.80
2018-08-25T22:07:52.509Z,0.80
2018-08-25T22:10:21.061Z,0.90
2018-08-25T22:12:50.047Z,1.00
2018-08-25T22:15:18.473Z,1.20
2018-08-25T22:17:46.684Z,1.10
2018-08-25T22:20:14.900Z,0.93
2018-08-25T22:22:43.070Z,0.90
2018-08-25T22:25:11.297Z,0.90
2018-08-25T22:27:39.581Z,0.93
2018-08-25T22:30:07.833Z,1.10
2018-08-25T22:32:35.985Z,0.90
2018-08-25T22:35:04.144Z,1.03
2018-08-25T22:37:32.344Z,0.80
2018-08-25T22:40:00.556Z,0.90
2018-08-25T22:42:28.738Z,0.80
2018-08-25T22:44:56.903Z,0.70
2018-08-25T22:47:26.114Z,0.90
2018-08-25T22:49:54.268Z,0.87
2018-08-25T22:52:27.921Z,1.00
2018-08-25T22:54:56.221Z,1.30
2018-08-25T22:57:24.381Z,1.10
2018-08-25T22:59:52.663Z,0.90
2018-08-25T23:02:20.846Z,1.10
2018-08-25T23:04:49.091Z,1.20
2018-08-25T23:07:17.234Z,1.30
2018-08-25T23:09:45.465Z,1.00
2018-08-25T23:12:13.745Z,1.00
2018-08-25T23:14:41.955Z,0.90
2018-08-25T23:17:10.368Z,1.40
2018-08-25T23:19:38.604Z,0.90
2018-08-25T23:22:06.758Z,1.30
2018-08-25T23:24:34.919Z,1.00
2018-08-25T23:27:03.220Z,1.13
2018-08-25T23:29:31.609Z,1.47
2018-08-25T23:31:59.868Z,1.20
2018-08-25T23:34:28.157Z,1.30
2018-08-25T23:36:56.486Z,1.30
2018-08-25T23:39:24.652Z,1.10
2018-08-25T23:41:52.805Z,1.10
2018-08-25T23:44:21.557Z,1.20
2018-08-25T23:46:49.874Z,1.00
2018-08-25T23:49:18.109Z,1.17
2018-08-25T23:51:46.264Z,1.07
2018-08-25T23:54:14.544Z,1.13
2018-08-25T23:56:42.718Z,0.87
2018-08-25T23:59:10.980Z,1.10
